sensor_id;sensor_type;location;lat;lon;timestamp;temperature;humidity
8824;DHT22;4448;50.904;4.694;2023-07-29T00:00:41;20.60;99.90
8824;DHT22;4448;50.904;4.694;2023-07-29T00:03:08;20.60;99.90
8824;DHT22;4448;50.904;4.694;2023-07-29T00:07:59;20.60;99.90
8824;DHT22;4448;50.904;4.694;2023-07-29T00:10:26;20.60;99.90
8824;DHT22;4448;50.904;4.694;2023-07-29T00:12:51;20.70;99.90
8824;DHT22;4448;50.904;4.694;2023-07-29T00:15:18;20.60;99.90
8824;DHT22;4448;50.904;4.694;2023-07-29T00:20:09;20.60;99.90
8824;DHT22;4448;50.904;4.694;2023-07-29T00:22:35;20.60;99.90
8824;DHT22;4448;50.904;4.694;2023-07-29T00:25:01;20.50;99.90
8824;DHT22;4448;50.904;4.694;2023-07-29T00:27:26;20.50;99.90
8824;DHT22;4448;50.904;4.694;2023-07-29T00:29:52;20.20;99.90
8824;DHT22;4448;50.904;4.694;2023-07-29T00:32:18;20.50;99.90
8824;DHT22;4448;50.904;4.694;2023-07-29T00:34:43;20.50;99.90
8824;DHT22;4448;50.904;4.694;2023-07-29T00:37:09;21.00;99.90
8824;DHT22;4448;50.904;4.694;2023-07-29T00:39:36;20.40;99.90
8824;DHT22;4448;50.904;4.694;2023-07-29T00:42:03;20.40;99.90
8824;DHT22;4448;50.904;4.694;2023-07-29T00:44:28;20.40;99.90
8824;DHT22;4448;50.904;4.694;2023-07-29T00:46:54;20.30;99.90
8824;DHT22;4448;50.904;4.694;2023-07-29T00:49:21;20.40;99.90
8824;DHT22;4448;50.904;4.694;2023-07-29T00:51:47;20.30;99.90
8824;DHT22;4448;50.904;4.694;2023-07-29T00:54:13;20.30;99.90
8824;DHT22;4448;50.904;4.694;2023-07-29T00:56:39;20.10;99.90
8824;DHT22;4448;50.904;4.694;2023-07-29T00:59:05;20.00;99.90
8824;DHT22;4448;50.904;4.694;2023-07-29T01:01:31;20.50;99.90
8824;DHT22;4448;50.904;4.694;2023-07-29T01:03:57;20.30;99.90
8824;DHT22;4448;50.904;4.694;2023-07-29T01:06:45;20.20;99.90
8824;DHT22;4448;50.904;4.694;2023-07-29T01:15:14;20.10;99.90
8824;DHT22;4448;50.904;4.694;2023-07-29T01:17:56;20.10;99.90
8824;DHT22;4448;50.904;4.694;2023-07-29T01:20:25;20.10;99.90
8824;DHT22;4448;50.904;4.694;2023-07-29T01:22:51;20.10;99.90
8824;DHT22;4448;50.904;4.694;2023-07-29T01:25:17;20.20;99.90
8824;DHT22;4448;50.904;4.694;2023-07-29T01:27:46;20.10;99.90
8824;DHT22;4448;50.904;4.694;2023-07-29T01:30:12;20.20;99.90
8824;DHT22;4448;50.904;4.694;2023-07-29T01:32:59;20.00;99.90
8824;DHT22;4448;50.904;4.694;2023-07-29T01:35:32;20.00;99.90
8824;DHT22;4448;50.904;4.694;2023-07-29T01:38:09;20.10;99.90
8824;DHT22;4448;50.904;4.694;2023-07-29T01:40:39;20.10;99.90
8824;DHT22;4448;50.904;4.694;2023-07-29T01:43:06;20.10;99.90
8824;DHT22;4448;50.904;4.694;2023-07-29T01:45:34;20.20;99.90
8824;DHT22;4448;50.904;4.694;2023-07-29T01:48:06;20.00;99.90
8824;DHT22;4448;50.904;4.694;2023-07-29T01:50:33;20.00;99.90
8824;DHT22;4448;50.904;4.694;2023-07-29T01:52:59;19.80;99.90
8824;DHT22;4448;50.904;4.694;2023-07-29T01:55:24;19.90;99.90
8824;DHT22;4448;50.904;4.694;2023-07-29T01:57:50;19.90;99.90
8824;DHT22;4448;50.904;4.694;2023-07-29T02:00:20;20.00;99.90
8824;DHT22;4448;50.904;4.694;2023-07-29T02:02:48;19.90;99.90
8824;DHT22;4448;50.904;4.694;2023-07-29T02:05:13;19.80;99.90
8824;DHT22;4448;50.904;4.694;2023-07-29T02:07:39;20.10;99.90
8824;DHT22;4448;50.904;4.694;2023-07-29T02:10:05;19.90;99.90
8824;DHT22;4448;50.904;4.694;2023-07-29T02:12:30;20.10;99.90
8824;DHT22;4448;50.904;4.694;2023-07-29T02:14:56;19.80;99.90
8824;DHT22;4448;50.904;4.694;2023-07-29T02:17:21;19.80;99.90
8824;DHT22;4448;50.904;4.694;2023-07-29T02:19:47;19.80;99.90
8824;DHT22;4448;50.904;4.694;2023-07-29T02:22:16;19.70;99.90
8824;DHT22;4448;50.904;4.694;2023-07-29T02:24:41;19.80;99.90
8824;DHT22;4448;50.904;4.694;2023-07-29T02:27:07;19.80;99.90
8824;DHT22;4448;50.904;4.694;2023-07-29T02:29:32;19.80;99.90
8824;DHT22;4448;50.904;4.694;2023-07-29T02:31:59;19.70;99.90
8824;DHT22;4448;50.904;4.694;2023-07-29T02:34:25;19.70;99.90
8824;DHT22;4448;50.904;4.694;2023-07-29T02:36:50;19.70;99.90
8824;DHT22;4448;50.904;4.694;2023-07-29T02:39:16;19.70;99.90
8824;DHT22;4448;50.904;4.694;2023-07-29T02:41:42;19.70;99.90
8824;DHT22;4448;50.904;4.694;2023-07-29T02:44:07;19.60;99.90
8824;DHT22;4448;50.904;4.694;2023-07-29T02:46:33;19.80;99.90
8824;DHT22;4448;50.904;4.694;2023-07-29T02:48:59;19.60;99.90
8824;DHT22;4448;50.904;4.694;2023-07-29T02:51:24;19.60;99.90
8824;DHT22;4448;50.904;4.694;2023-07-29T02:53:50;19.90;99.90
8824;DHT22;4448;50.904;4.694;2023-07-29T02:56:16;19.60;99.90
8824;DHT22;4448;50.904;4.694;2023-07-29T02:58:41;19.50;99.90
8824;DHT22;4448;50.904;4.694;2023-07-29T03:01:07;19.50;99.90
8824;DHT22;4448;50.904;4.694;2023-07-29T03:03:33;19.40;99.90
8824;DHT22;4448;50.904;4.694;2023-07-29T03:08:28;18.50;99.90
8824;DHT22;4448;50.904;4.694;2023-07-29T03:10:55;19.50;99.90
8824;DHT22;4448;50.904;4.694;2023-07-29T03:13:21;19.40;99.90
8824;DHT22;4448;50.904;4.694;2023-07-29T03:15:46;19.40;99.90
8824;DHT22;4448;50.904;4.694;2023-07-29T03:18:12;19.40;99.90
8824;DHT22;4448;50.904;4.694;2023-07-29T03:20:38;19.30;99.90
8824;DHT22;4448;50.904;4.694;2023-07-29T03:23:03;19.40;99.90
8824;DHT22;4448;50.904;4.694;2023-07-29T03:25:29;19.30;99.90
8824;DHT22;4448;50.904;4.694;2023-07-29T03:27:55;19.40;99.90
8824;DHT22;4448;50.904;4.694;2023-07-29T03:30:21;19.30;99.90
8824;DHT22;4448;50.904;4.694;2023-07-29T03:32:48;19.20;99.90
8824;DHT22;4448;50.904;4.694;2023-07-29T03:35:14;19.20;99.90
8824;DHT22;4448;50.904;4.694;2023-07-29T03:37:40;19.30;99.90
8824;DHT22;4448;50.904;4.694;2023-07-29T03:40:06;19.40;99.90
8824;DHT22;4448;50.904;4.694;2023-07-29T03:42:33;19.10;99.90
8824;DHT22;4448;50.904;4.694;2023-07-29T03:44:58;19.30;99.90
8824;DHT22;4448;50.904;4.694;2023-07-29T03:47:24;19.20;99.90
8824;DHT22;4448;50.904;4.694;2023-07-29T03:49:50;19.30;99.90
8824;DHT22;4448;50.904;4.694;2023-07-29T03:52:15;19.30;99.90
8824;DHT22;4448;50.904;4.694;2023-07-29T03:54:41;19.20;99.90
8824;DHT22;4448;50.904;4.694;2023-07-29T03:57:07;19.30;99.90
8824;DHT22;4448;50.904;4.694;2023-07-29T03:59:32;19.30;99.90
8824;DHT22;4448;50.904;4.694;2023-07-29T04:01:58;19.10;99.90
8824;DHT22;4448;50.904;4.694;2023-07-29T04:04:24;19.20;99.90
8824;DHT22;4448;50.904;4.694;2023-07-29T04:06:49;19.10;99.90
8824;DHT22;4448;50.904;4.694;2023-07-29T04:09:15;19.30;99.90
8824;DHT22;4448;50.904;4.694;2023-07-29T04:11:41;19.20;99.90
8824;DHT22;4448;50.904;4.694;2023-07-29T04:14:06;19.10;99.90
8824;DHT22;4448;50.904;4.694;2023-07-29T04:16:32;18.70;99.90
8824;DHT22;4448;50.904;4.694;2023-07-29T04:18:57;19.10;99.90
8824;DHT22;4448;50.904;4.694;2023-07-29T04:21:23;19.10;99.90
8824;DHT22;4448;50.904;4.694;2023-07-29T04:23:49;19.10;99.90
8824;DHT22;4448;50.904;4.694;2023-07-29T04:26:14;19.10;99.90
8824;DHT22;4448;50.904;4.694;2023-07-29T04:28:40;19.30;99.90
8824;DHT22;4448;50.904;4.694;2023-07-29T04:31:05;19.10;99.90
8824;DHT22;4448;50.904;4.694;2023-07-29T04:33:31;19.10;99.90
8824;DHT22;4448;50.904;4.694;2023-07-29T04:35:57;19.10;99.90
8824;DHT22;4448;50.904;4.694;2023-07-29T04:38:32;19.00;99.90
8824;DHT22;4448;50.904;4.694;2023-07-29T04:40:58;19.00;99.90
8824;DHT22;4448;50.904;4.694;2023-07-29T04:43:27;19.00;99.90
8824;DHT22;4448;50.904;4.694;2023-07-29T04:45:54;18.60;99.90
8824;DHT22;4448;50.904;4.694;2023-07-29T04:48:19;19.00;99.90
8824;DHT22;4448;50.904;4.694;2023-07-29T04:50:45;19.10;99.90
8824;DHT22;4448;50.904;4.694;2023-07-29T04:53:11;19.10;99.90
8824;DHT22;4448;50.904;4.694;2023-07-29T04:55:36;19.00;99.90
8824;DHT22;4448;50.904;4.694;2023-07-29T04:58:02;19.10;99.90
8824;DHT22;4448;50.904;4.694;2023-07-29T05:00:28;19.10;99.90
8824;DHT22;4448;50.904;4.694;2023-07-29T05:02:53;19.10;99.90
8824;DHT22;4448;50.904;4.694;2023-07-29T05:05:19;19.30;99.90
8824;DHT22;4448;50.904;4.694;2023-07-29T05:10:10;19.10;99.90
8824;DHT22;4448;50.904;4.694;2023-07-29T05:12:36;19.20;99.90
8824;DHT22;4448;50.904;4.694;2023-07-29T05:15:02;19.10;99.90
8824;DHT22;4448;50.904;4.694;2023-07-29T05:17:28;19.10;99.90
8824;DHT22;4448;50.904;4.694;2023-07-29T05:19:53;19.10;99.90
8824;DHT22;4448;50.904;4.694;2023-07-29T05:22:19;19.10;99.90
8824;DHT22;4448;50.904;4.694;2023-07-29T05:24:45;19.10;99.90
8824;DHT22;4448;50.904;4.694;2023-07-29T05:27:10;19.10;99.90
8824;DHT22;4448;50.904;4.694;2023-07-29T05:29:36;19.60;99.90
8824;DHT22;4448;50.904;4.694;2023-07-29T05:32:02;19.30;99.90
8824;DHT22;4448;50.904;4.694;2023-07-29T05:34:28;19.00;99.90
8824;DHT22;4448;50.904;4.694;2023-07-29T05:36:53;19.20;99.90
8824;DHT22;4448;50.904;4.694;2023-07-29T05:39:19;19.20;99.90
8824;DHT22;4448;50.904;4.694;2023-07-29T05:41:44;19.20;99.90
8824;DHT22;4448;50.904;4.694;2023-07-29T05:44:11;19.10;99.90
8824;DHT22;4448;50.904;4.694;2023-07-29T05:46:36;19.10;99.90
8824;DHT22;4448;50.904;4.694;2023-07-29T05:49:02;19.10;99.90
8824;DHT22;4448;50.904;4.694;2023-07-29T05:51:28;19.00;99.90
8824;DHT22;4448;50.904;4.694;2023-07-29T05:53:53;19.10;99.90
8824;DHT22;4448;50.904;4.694;2023-07-29T05:56:19;19.10;99.90
8824;DHT22;4448;50.904;4.694;2023-07-29T05:58:45;19.10;99.90
8824;DHT22;4448;50.904;4.694;2023-07-29T06:01:10;19.10;99.90
8824;DHT22;4448;50.904;4.694;2023-07-29T06:03:36;19.10;99.90
8824;DHT22;4448;50.904;4.694;2023-07-29T06:06:01;19.20;99.90
8824;DHT22;4448;50.904;4.694;2023-07-29T06:08:27;19.30;99.90
8824;DHT22;4448;50.904;4.694;2023-07-29T06:10:54;19.20;99.90
8824;DHT22;4448;50.904;4.694;2023-07-29T06:13:20;19.30;99.90
8824;DHT22;4448;50.904;4.694;2023-07-29T06:15:45;19.30;99.90
8824;DHT22;4448;50.904;4.694;2023-07-29T06:18:11;19.40;99.90
8824;DHT22;4448;50.904;4.694;2023-07-29T06:20:37;19.50;99.90
8824;DHT22;4448;50.904;4.694;2023-07-29T06:23:04;19.80;99.90
8824;DHT22;4448;50.904;4.694;2023-07-29T06:25:29;19.30;99.90
8824;DHT22;4448;50.904;4.694;2023-07-29T06:27:55;19.50;99.90
8824;DHT22;4448;50.904;4.694;2023-07-29T06:30:20;19.40;99.90
8824;DHT22;4448;50.904;4.694;2023-07-29T06:32:47;19.40;99.90
8824;DHT22;4448;50.904;4.694;2023-07-29T06:35:13;19.50;99.90
8824;DHT22;4448;50.904;4.694;2023-07-29T06:37:38;19.60;99.90
8824;DHT22;4448;50.904;4.694;2023-07-29T06:40:04;19.40;99.90
8824;DHT22;4448;50.904;4.694;2023-07-29T06:42:30;19.90;99.90
8824;DHT22;4448;50.904;4.694;2023-07-29T06:44:56;19.50;99.90
8824;DHT22;4448;50.904;4.694;2023-07-29T06:47:22;19.50;99.90
8824;DHT22;4448;50.904;4.694;2023-07-29T06:49:48;19.90;99.90
8824;DHT22;4448;50.904;4.694;2023-07-29T06:52:13;19.50;99.90
8824;DHT22;4448;50.904;4.694;2023-07-29T06:54:39;19.60;99.90
8824;DHT22;4448;50.904;4.694;2023-07-29T06:57:05;19.30;99.90
8824;DHT22;4448;50.904;4.694;2023-07-29T06:59:31;19.80;99.90
8824;DHT22;4448;50.904;4.694;2023-07-29T07:01:56;19.80;99.90
8824;DHT22;4448;50.904;4.694;2023-07-29T07:04:22;19.80;99.90
8824;DHT22;4448;50.904;4.694;2023-07-29T07:06:47;19.80;99.90
8824;DHT22;4448;50.904;4.694;2023-07-29T07:09:13;19.90;99.90
8824;DHT22;4448;50.904;4.694;2023-07-29T07:11:39;19.90;99.90
8824;DHT22;4448;50.904;4.694;2023-07-29T07:14:04;19.90;99.90
8824;DHT22;4448;50.904;4.694;2023-07-29T07:16:30;20.00;99.90
8824;DHT22;4448;50.904;4.694;2023-07-29T07:18:57;21.00;99.90
8824;DHT22;4448;50.904;4.694;2023-07-29T07:21:22;20.00;99.90
8824;DHT22;4448;50.904;4.694;2023-07-29T07:23:50;20.30;99.90
8824;DHT22;4448;50.904;4.694;2023-07-29T07:26:15;20.10;99.90
8824;DHT22;4448;50.904;4.694;2023-07-29T07:28:41;20.20;99.90
8824;DHT22;4448;50.904;4.694;2023-07-29T07:31:07;20.10;99.90
8824;DHT22;4448;50.904;4.694;2023-07-29T07:33:32;20.30;99.90
8824;DHT22;4448;50.904;4.694;2023-07-29T07:35:58;20.20;99.90
8824;DHT22;4448;50.904;4.694;2023-07-29T07:38:23;20.30;99.90
8824;DHT22;4448;50.904;4.694;2023-07-29T07:40:54;20.40;99.90
8824;DHT22;4448;50.904;4.694;2023-07-29T07:43:20;20.20;99.90
8824;DHT22;4448;50.904;4.694;2023-07-29T07:48:12;20.20;99.90
8824;DHT22;4448;50.904;4.694;2023-07-29T07:50:39;19.90;99.90
8824;DHT22;4448;50.904;4.694;2023-07-29T07:53:05;20.30;99.90
8824;DHT22;4448;50.904;4.694;2023-07-29T07:55:31;20.40;99.90
8824;DHT22;4448;50.904;4.694;2023-07-29T07:57:56;20.60;99.90
8824;DHT22;4448;50.904;4.694;2023-07-29T08:00:22;20.30;99.90
8824;DHT22;4448;50.904;4.694;2023-07-29T08:02:47;20.50;99.90
8824;DHT22;4448;50.904;4.694;2023-07-29T08:05:13;20.50;99.90
8824;DHT22;4448;50.904;4.694;2023-07-29T08:07:39;20.30;99.90
8824;DHT22;4448;50.904;4.694;2023-07-29T08:10:05;20.40;99.90
8824;DHT22;4448;50.904;4.694;2023-07-29T08:12:32;20.60;99.90
8824;DHT22;4448;50.904;4.694;2023-07-29T08:14:57;20.60;99.90
8824;DHT22;4448;50.904;4.694;2023-07-29T08:17:23;20.70;99.90
8824;DHT22;4448;50.904;4.694;2023-07-29T08:19:49;20.50;99.90
8824;DHT22;4448;50.904;4.694;2023-07-29T08:22:14;20.80;99.90
8824;DHT22;4448;50.904;4.694;2023-07-29T08:24:42;20.60;99.90
8824;DHT22;4448;50.904;4.694;2023-07-29T08:27:08;20.70;99.90
8824;DHT22;4448;50.904;4.694;2023-07-29T08:29:34;20.60;99.90
8824;DHT22;4448;50.904;4.694;2023-07-29T08:31:59;20.70;99.90
8824;DHT22;4448;50.904;4.694;2023-07-29T08:34:25;20.80;99.90
8824;DHT22;4448;50.904;4.694;2023-07-29T08:36:50;20.70;99.90
8824;DHT22;4448;50.904;4.694;2023-07-29T08:39:16;20.80;99.90
8824;DHT22;4448;50.904;4.694;2023-07-29T08:41:57;21.00;99.90
8824;DHT22;4448;50.904;4.694;2023-07-29T08:44:26;21.00;99.90
8824;DHT22;4448;50.904;4.694;2023-07-29T08:46:54;21.20;99.90
8824;DHT22;4448;50.904;4.694;2023-07-29T08:49:21;21.20;99.90
8824;DHT22;4448;50.904;4.694;2023-07-29T08:51:48;21.10;99.90
8824;DHT22;4448;50.904;4.694;2023-07-29T08:54:15;21.10;99.90
8824;DHT22;4448;50.904;4.694;2023-07-29T08:56:41;21.10;99.90
8824;DHT22;4448;50.904;4.694;2023-07-29T08:59:08;21.40;99.90
8824;DHT22;4448;50.904;4.694;2023-07-29T09:01:34;21.20;99.90
8824;DHT22;4448;50.904;4.694;2023-07-29T09:04:00;21.30;99.90
8824;DHT22;4448;50.904;4.694;2023-07-29T09:06:26;21.40;99.90
8824;DHT22;4448;50.904;4.694;2023-07-29T09:08:54;21.50;99.90
8824;DHT22;4448;50.904;4.694;2023-07-29T09:11:22;21.60;99.90
8824;DHT22;4448;50.904;4.694;2023-07-29T09:13:47;21.50;99.90
8824;DHT22;4448;50.904;4.694;2023-07-29T09:16:13;21.70;99.90
8824;DHT22;4448;50.904;4.694;2023-07-29T09:18:39;21.60;99.90
8824;DHT22;4448;50.904;4.694;2023-07-29T09:21:05;21.80;99.90
8824;DHT22;4448;50.904;4.694;2023-07-29T09:23:44;22.00;99.90
8824;DHT22;4448;50.904;4.694;2023-07-29T09:26:10;22.10;99.90
8824;DHT22;4448;50.904;4.694;2023-07-29T09:28:38;22.70;99.90
8824;DHT22;4448;50.904;4.694;2023-07-29T09:31:05;22.10;99.90
8824;DHT22;4448;50.904;4.694;2023-07-29T09:33:35;22.20;99.90
8824;DHT22;4448;50.904;4.694;2023-07-29T09:36:09;22.30;99.90
8824;DHT22;4448;50.904;4.694;2023-07-29T09:38:35;22.40;99.90
8824;DHT22;4448;50.904;4.694;2023-07-29T09:41:03;22.30;99.90
8824;DHT22;4448;50.904;4.694;2023-07-29T09:43:30;22.40;99.90
8824;DHT22;4448;50.904;4.694;2023-07-29T09:46:00;22.40;99.90
8824;DHT22;4448;50.904;4.694;2023-07-29T09:48:26;22.40;99.90
8824;DHT22;4448;50.904;4.694;2023-07-29T09:50:54;22.40;99.90
8824;DHT22;4448;50.904;4.694;2023-07-29T09:53:21;22.60;99.90
8824;DHT22;4448;50.904;4.694;2023-07-29T09:55:49;22.40;99.90
8824;DHT22;4448;50.904;4.694;2023-07-29T09:58:22;22.50;99.90
8824;DHT22;4448;50.904;4.694;2023-07-29T10:00:51;22.40;99.90
8824;DHT22;4448;50.904;4.694;2023-07-29T10:03:18;22.50;99.90
8824;DHT22;4448;50.904;4.694;2023-07-29T10:05:44;22.60;99.90
8824;DHT22;4448;50.904;4.694;2023-07-29T10:08:10;22.60;99.90
8824;DHT22;4448;50.904;4.694;2023-07-29T10:10:37;22.60;99.90
8824;DHT22;4448;50.904;4.694;2023-07-29T10:13:03;22.50;99.90
8824;DHT22;4448;50.904;4.694;2023-07-29T10:15:31;22.60;99.90
8824;DHT22;4448;50.904;4.694;2023-07-29T10:17:58;22.50;99.90
8824;DHT22;4448;50.904;4.694;2023-07-29T10:20:24;22.60;99.90
8824;DHT22;4448;50.904;4.694;2023-07-29T10:22:51;22.50;99.90
8824;DHT22;4448;50.904;4.694;2023-07-29T10:25:22;22.80;99.90
8824;DHT22;4448;50.904;4.694;2023-07-29T10:27:52;22.90;99.90
8824;DHT22;4448;50.904;4.694;2023-07-29T10:30:18;23.00;99.90
8824;DHT22;4448;50.904;4.694;2023-07-29T10:32:45;22.70;99.90
8824;DHT22;4448;50.904;4.694;2023-07-29T10:35:14;22.90;99.90
8824;DHT22;4448;50.904;4.694;2023-07-29T10:37:41;22.90;99.90
8824;DHT22;4448;50.904;4.694;2023-07-29T10:40:09;22.80;99.90
8824;DHT22;4448;50.904;4.694;2023-07-29T10:42:37;23.20;99.90
8824;DHT22;4448;50.904;4.694;2023-07-29T10:45:19;23.30;99.90
8824;DHT22;4448;50.904;4.694;2023-07-29T10:47:46;22.70;99.90
8824;DHT22;4448;50.904;4.694;2023-07-29T10:50:21;22.70;99.90
8824;DHT22;4448;50.904;4.694;2023-07-29T10:52:53;22.70;99.90
8824;DHT22;4448;50.904;4.694;2023-07-29T10:55:29;22.40;99.90
8824;DHT22;4448;50.904;4.694;2023-07-29T10:58:12;22.40;99.90
8824;DHT22;4448;50.904;4.694;2023-07-29T11:00:43;22.30;99.90
8824;DHT22;4448;50.904;4.694;2023-07-29T11:03:09;22.20;99.90
8824;DHT22;4448;50.904;4.694;2023-07-29T11:08:21;22.00;99.90
8824;DHT22;4448;50.904;4.694;2023-07-29T11:11:07;21.80;99.90
8824;DHT22;4448;50.904;4.694;2023-07-29T11:13:35;21.70;99.90
8824;DHT22;4448;50.904;4.694;2023-07-29T11:16:02;21.60;99.90
8824;DHT22;4448;50.904;4.694;2023-07-29T11:18:29;21.70;99.90
8824;DHT22;4448;50.904;4.694;2023-07-29T11:20:56;21.70;99.90
8824;DHT22;4448;50.904;4.694;2023-07-29T11:23:28;21.80;99.90
8824;DHT22;4448;50.904;4.694;2023-07-29T11:25:54;22.00;99.90
8824;DHT22;4448;50.904;4.694;2023-07-29T11:28:20;21.80;99.90
8824;DHT22;4448;50.904;4.694;2023-07-29T11:30:49;21.80;99.90
8824;DHT22;4448;50.904;4.694;2023-07-29T11:33:20;22.30;99.90
8824;DHT22;4448;50.904;4.694;2023-07-29T11:35:46;22.00;99.90
8824;DHT22;4448;50.904;4.694;2023-07-29T11:38:19;21.90;99.90
8824;DHT22;4448;50.904;4.694;2023-07-29T11:41:01;22.00;99.90
8824;DHT22;4448;50.904;4.694;2023-07-29T11:43:35;22.10;99.90
8824;DHT22;4448;50.904;4.694;2023-07-29T11:46:01;21.80;99.90
8824;DHT22;4448;50.904;4.694;2023-07-29T11:48:33;22.30;99.90
8824;DHT22;4448;50.904;4.694;2023-07-29T11:50:59;23.10;99.90
8824;DHT22;4448;50.904;4.694;2023-07-29T11:53:28;22.40;99.90
8824;DHT22;4448;50.904;4.694;2023-07-29T11:55:55;22.60;99.90
8824;DHT22;4448;50.904;4.694;2023-07-29T11:58:21;22.60;99.90
8824;DHT22;4448;50.904;4.694;2023-07-29T12:00:47;22.90;99.90
8824;DHT22;4448;50.904;4.694;2023-07-29T12:03:13;22.80;99.90
8824;DHT22;4448;50.904;4.694;2023-07-29T12:05:39;22.90;99.90
8824;DHT22;4448;50.904;4.694;2023-07-29T12:08:05;23.20;99.90
8824;DHT22;4448;50.904;4.694;2023-07-29T12:10:31;23.30;99.90
8824;DHT22;4448;50.904;4.694;2023-07-29T12:12:57;23.60;99.90
8824;DHT22;4448;50.904;4.694;2023-07-29T12:15:24;23.70;99.90
8824;DHT22;4448;50.904;4.694;2023-07-29T12:17:52;24.00;99.90
8824;DHT22;4448;50.904;4.694;2023-07-29T12:20:20;24.30;99.90
8824;DHT22;4448;50.904;4.694;2023-07-29T12:22:52;24.30;99.90
8824;DHT22;4448;50.904;4.694;2023-07-29T12:25:18;24.60;99.90
8824;DHT22;4448;50.904;4.694;2023-07-29T12:27:44;24.70;99.90
8824;DHT22;4448;50.904;4.694;2023-07-29T12:30:10;24.60;99.90
8824;DHT22;4448;50.904;4.694;2023-07-29T12:32:46;24.60;99.90
8824;DHT22;4448;50.904;4.694;2023-07-29T12:35:12;24.50;99.90
8824;DHT22;4448;50.904;4.694;2023-07-29T12:37:38;24.40;99.90
8824;DHT22;4448;50.904;4.694;2023-07-29T12:40:08;24.20;99.90
8824;DHT22;4448;50.904;4.694;2023-07-29T12:42:34;24.10;99.90
8824;DHT22;4448;50.904;4.694;2023-07-29T12:45:00;23.80;99.90
8824;DHT22;4448;50.904;4.694;2023-07-29T12:47:25;23.70;99.90
8824;DHT22;4448;50.904;4.694;2023-07-29T12:49:51;23.60;99.90
8824;DHT22;4448;50.904;4.694;2023-07-29T12:52:17;23.60;99.90
8824;DHT22;4448;50.904;4.694;2023-07-29T12:54:43;23.30;99.90
8824;DHT22;4448;50.904;4.694;2023-07-29T12:57:09;23.10;99.90
8824;DHT22;4448;50.904;4.694;2023-07-29T12:59:35;23.10;99.90
8824;DHT22;4448;50.904;4.694;2023-07-29T13:02:01;23.20;99.90
8824;DHT22;4448;50.904;4.694;2023-07-29T13:04:26;23.00;99.90
8824;DHT22;4448;50.904;4.694;2023-07-29T13:06:52;22.80;99.90
8824;DHT22;4448;50.904;4.694;2023-07-29T13:09:17;22.90;99.90
8824;DHT22;4448;50.904;4.694;2023-07-29T13:11:43;22.90;99.90
8824;DHT22;4448;50.904;4.694;2023-07-29T13:14:09;23.10;99.90
8824;DHT22;4448;50.904;4.694;2023-07-29T13:16:34;23.40;99.90
8824;DHT22;4448;50.904;4.694;2023-07-29T13:19:00;23.20;99.90
8824;DHT22;4448;50.904;4.694;2023-07-29T13:21:25;22.60;99.90
8824;DHT22;4448;50.904;4.694;2023-07-29T13:23:51;23.30;99.90
8824;DHT22;4448;50.904;4.694;2023-07-29T13:26:17;23.50;99.90
8824;DHT22;4448;50.904;4.694;2023-07-29T13:28:43;23.70;99.90
8824;DHT22;4448;50.904;4.694;2023-07-29T13:31:09;23.60;99.90
8824;DHT22;4448;50.904;4.694;2023-07-29T13:33:34;23.70;99.90
8824;DHT22;4448;50.904;4.694;2023-07-29T13:36:00;24.00;99.90
8824;DHT22;4448;50.904;4.694;2023-07-29T13:38:28;24.00;99.90
8824;DHT22;4448;50.904;4.694;2023-07-29T13:40:56;24.00;99.90
8824;DHT22;4448;50.904;4.694;2023-07-29T13:43:22;24.00;99.90
8824;DHT22;4448;50.904;4.694;2023-07-29T13:45:47;24.40;99.90
8824;DHT22;4448;50.904;4.694;2023-07-29T13:48:15;24.30;99.90
8824;DHT22;4448;50.904;4.694;2023-07-29T13:50:41;24.30;99.90
8824;DHT22;4448;50.904;4.694;2023-07-29T13:53:09;24.40;99.90
8824;DHT22;4448;50.904;4.694;2023-07-29T13:55:34;24.20;99.90
8824;DHT22;4448;50.904;4.694;2023-07-29T13:58:00;24.20;99.90
8824;DHT22;4448;50.904;4.694;2023-07-29T14:00:26;24.20;99.90
8824;DHT22;4448;50.904;4.694;2023-07-29T14:02:51;24.40;99.90
8824;DHT22;4448;50.904;4.694;2023-07-29T14:05:17;23.90;99.90
8824;DHT22;4448;50.904;4.694;2023-07-29T14:07:42;24.40;99.90
8824;DHT22;4448;50.904;4.694;2023-07-29T14:10:08;24.50;99.90
8824;DHT22;4448;50.904;4.694;2023-07-29T14:12:34;24.60;99.90
8824;DHT22;4448;50.904;4.694;2023-07-29T14:15:00;24.40;99.90
8824;DHT22;4448;50.904;4.694;2023-07-29T14:17:26;24.70;99.90
8824;DHT22;4448;50.904;4.694;2023-07-29T14:19:52;24.00;99.90
8824;DHT22;4448;50.904;4.694;2023-07-29T14:22:17;24.50;99.90
8824;DHT22;4448;50.904;4.694;2023-07-29T14:24:43;24.50;99.90
8824;DHT22;4448;50.904;4.694;2023-07-29T14:27:08;24.50;99.90
8824;DHT22;4448;50.904;4.694;2023-07-29T14:29:34;25.00;99.90
8824;DHT22;4448;50.904;4.694;2023-07-29T14:32:00;24.40;99.90
8824;DHT22;4448;50.904;4.694;2023-07-29T14:34:25;24.40;99.90
8824;DHT22;4448;50.904;4.694;2023-07-29T14:36:51;24.30;99.90
8824;DHT22;4448;50.904;4.694;2023-07-29T14:39:17;24.30;99.90
8824;DHT22;4448;50.904;4.694;2023-07-29T14:41:43;24.50;99.90
8824;DHT22;4448;50.904;4.694;2023-07-29T14:44:08;24.30;99.90
8824;DHT22;4448;50.904;4.694;2023-07-29T14:46:34;24.30;99.90
8824;DHT22;4448;50.904;4.694;2023-07-29T14:48:59;24.30;99.90
8824;DHT22;4448;50.904;4.694;2023-07-29T14:51:25;24.30;99.90
8824;DHT22;4448;50.904;4.694;2023-07-29T14:53:51;23.80;99.90
8824;DHT22;4448;50.904;4.694;2023-07-29T14:56:16;24.50;99.90
8824;DHT22;4448;50.904;4.694;2023-07-29T14:58:43;24.30;99.90
8824;DHT22;4448;50.904;4.694;2023-07-29T15:01:09;24.20;99.90
8824;DHT22;4448;50.904;4.694;2023-07-29T15:03:34;24.40;99.90
8824;DHT22;4448;50.904;4.694;2023-07-29T15:06:00;24.40;99.90
8824;DHT22;4448;50.904;4.694;2023-07-29T15:08:26;24.30;99.90
8824;DHT22;4448;50.904;4.694;2023-07-29T15:10:52;24.30;99.90
8824;DHT22;4448;50.904;4.694;2023-07-29T15:13:19;24.30;99.90
8824;DHT22;4448;50.904;4.694;2023-07-29T15:15:44;24.50;99.90
8824;DHT22;4448;50.904;4.694;2023-07-29T15:18:10;24.50;99.90
8824;DHT22;4448;50.904;4.694;2023-07-29T15:20:36;23.40;99.90
8824;DHT22;4448;50.904;4.694;2023-07-29T15:23:02;24.30;99.90
8824;DHT22;4448;50.904;4.694;2023-07-29T15:25:27;24.30;99.90
8824;DHT22;4448;50.904;4.694;2023-07-29T15:27:53;24.20;99.90
8824;DHT22;4448;50.904;4.694;2023-07-29T15:30:18;24.40;99.90
8824;DHT22;4448;50.904;4.694;2023-07-29T15:32:44;24.20;99.90
8824;DHT22;4448;50.904;4.694;2023-07-29T15:35:10;24.20;99.90
8824;DHT22;4448;50.904;4.694;2023-07-29T15:37:36;24.30;99.90
8824;DHT22;4448;50.904;4.694;2023-07-29T15:40:02;24.10;99.90
8824;DHT22;4448;50.904;4.694;2023-07-29T15:42:28;24.10;99.90
8824;DHT22;4448;50.904;4.694;2023-07-29T15:44:54;24.10;99.90
8824;DHT22;4448;50.904;4.694;2023-07-29T15:47:20;24.00;99.90
8824;DHT22;4448;50.904;4.694;2023-07-29T15:49:45;24.10;99.90
8824;DHT22;4448;50.904;4.694;2023-07-29T15:52:11;24.20;99.90
8824;DHT22;4448;50.904;4.694;2023-07-29T15:54:39;24.10;99.90
8824;DHT22;4448;50.904;4.694;2023-07-29T15:57:05;23.90;99.90
8824;DHT22;4448;50.904;4.694;2023-07-29T15:59:31;23.90;99.90
8824;DHT22;4448;50.904;4.694;2023-07-29T16:01:56;23.90;99.90
8824;DHT22;4448;50.904;4.694;2023-07-29T16:04:22;23.90;99.90
8824;DHT22;4448;50.904;4.694;2023-07-29T16:06:48;23.80;99.90
8824;DHT22;4448;50.904;4.694;2023-07-29T16:09:13;23.20;99.90
8824;DHT22;4448;50.904;4.694;2023-07-29T16:11:39;23.80;99.90
8824;DHT22;4448;50.904;4.694;2023-07-29T16:14:04;23.60;99.90
8824;DHT22;4448;50.904;4.694;2023-07-29T16:16:30;23.70;99.90
8824;DHT22;4448;50.904;4.694;2023-07-29T16:18:56;23.80;99.90